Time;durP1;ratioP1;P1;durP2;ratioP2;P2;SDS_P1;SDS_P2;PMS_P1;PMS_P2;Temp;Humidity;BMP_temperature;BMP_pressure;BME280_temperature;BME280_humidity;BME280_pressure;Samples;Min_cycle;Max_cycle;Signal;HPM_P1;HPM_P2
2021/12/12 00:00:03;;;;;;;69.20;31.80;;;;;;;-0.69;85.88;98896.80;103054;1325;138035;-84
2021/12/12 00:03:02;;;;;;;65.80;30.90;;;;;;;-0.69;85.90;98903.58;103225;1327;30720;-84
2021/12/12 00:05:51;;;;;;;64.90;27.80;;;;;;;-0.69;85.68;98906.04;103386;1323;138319;-84
2021/12/12 00:08:21;;;;;;;71.90;31.00;;;;;;;-0.68;85.46;98905.40;103293;1324;22740;-84
2021/12/12 00:10:53;;;;;;;59.90;27.70;;;;;;;-0.67;85.38;98913.86;103414;1320;23250;-84
2021/12/12 00:13:35;;;;;;;73.90;34.20;;;;;;;-0.67;85.36;98919.61;103118;1324;137453;-84
2021/12/12 00:16:03;;;;;;;71.00;32.40;;;;;;;-0.66;85.65;98924.73;103156;1326;25544;-84
2021/12/12 00:18:30;;;;;;;72.70;31.60;;;;;;;-0.66;85.38;98923.19;102849;1323;138149;-84
2021/12/12 00:20:58;;;;;;;67.40;30.20;;;;;;;-0.65;85.25;98920.55;103250;1321;24228;-84
2021/12/12 00:23:26;;;;;;;68.10;31.00;;;;;;;-0.62;85.47;98929.93;103039;1326;138272;-84
2021/12/12 00:25:57;;;;;;;66.60;30.60;;;;;;;-0.60;85.35;98939.09;103375;1327;25502;-84
2021/12/12 00:28:26;;;;;;;65.30;30.20;;;;;;;-0.57;85.56;98945.10;103381;1322;22692;-83
2021/12/12 00:31:00;;;;;;;62.30;29.90;;;;;;;-0.53;85.41;98948.85;103356;1323;137585;-84
2021/12/12 00:33:28;;;;;;;59.30;29.70;;;;;;;-0.50;85.10;98945.50;103189;1323;24259;-84
2021/12/12 00:35:55;;;;;;;58.20;27.50;;;;;;;-0.46;85.54;98949.15;103072;1326;138186;-83
2021/12/12 00:38:29;;;;;;;63.30;27.30;;;;;;;-0.40;85.26;98947.95;103173;1321;26568;-84
2021/12/12 00:41:18;;;;;;;71.00;29.20;;;;;;;-0.33;84.99;98943.45;102887;1331;23976;-84
2021/12/12 00:43:50;;;;;;;60.00;27.00;;;;;;;-0.27;84.92;98947.16;103568;1322;138046;-83
2021/12/12 00:46:21;;;;;;;59.10;26.30;;;;;;;-0.23;84.58;98948.27;103169;1323;23758;-84
2021/12/12 00:48:49;;;;;;;57.60;27.50;;;;;;;-0.19;84.46;98948.77;103337;1324;138055;-83
2021/12/12 00:51:35;;;;;;;57.10;25.20;;;;;;;-0.18;84.08;98947.05;103575;1327;22805;-84
2021/12/12 00:54:06;;;;;;;59.70;25.80;;;;;;;-0.17;84.11;98944.98;103265;1323;137878;-84
2021/12/12 00:56:33;;;;;;;56.60;25.60;;;;;;;-0.15;83.80;98946.34;103217;1322;25454;-83
2021/12/12 00:59:03;;;;;;;51.10;25.20;;;;;;;-0.12;83.55;98944.65;103203;1328;22569;-84
2021/12/12 01:01:37;;;;;;;54.30;25.60;;;;;;;-0.09;83.47;98952.89;103310;1326;137320;-84
2021/12/12 01:04:24;;;;;;;56.50;26.10;;;;;;;-0.07;83.61;98956.55;103057;1321;30139;-83
2021/12/12 01:06:53;;;;;;;63.10;27.30;;;;;;;-0.05;83.75;98957.64;103072;1321;137693;-83
2021/12/12 01:09:26;;;;;;;66.90;28.40;;;;;;;-0.05;83.44;98955.10;103263;1321;22590;-83
2021/12/12 01:11:59;;;;;;;62.50;29.20;;;;;;;-0.04;83.49;98961.66;103267;1329;137943;-84
2021/12/12 01:14:46;;;;;;;62.70;30.90;;;;;;;-0.05;83.53;98967.21;103389;1328;30523;-84
2021/12/12 01:17:28;;;;;;;70.50;31.70;;;;;;;-0.04;83.35;98963.94;103116;1321;22639;-83
2021/12/12 01:20:10;;;;;;;64.40;30.50;;;;;;;-0.01;83.41;98962.20;103355;1321;137847;-83
2021/12/12 01:22:41;;;;;;;68.60;32.00;;;;;;;0.01;83.40;98958.27;103190;1324;25255;-83
2021/12/12 01:25:20;;;;;;;69.70;30.10;;;;;;;-0.01;83.16;98955.55;103375;1328;137160;-83
2021/12/12 01:27:48;;;;;;;76.00;33.60;;;;;;;-0.07;82.85;98956.23;103209;1323;22608;-83
2021/12/12 01:30:17;;;;;;;74.60;33.40;;;;;;;-0.12;82.94;98957.50;103499;1319;138070;-83
2021/12/12 01:32:47;;;;;;;81.40;33.50;;;;;;;-0.17;82.93;98957.27;103312;1324;22590;-83
2021/12/12 01:35:18;;;;;;;71.90;33.20;;;;;;;-0.21;83.21;98953.39;103227;1329;22696;-83
2021/12/12 01:40:42;;;;;;;67.70;31.10;;;;;;;-0.29;83.12;98959.59;102991;1322;24257;-84
2021/12/12 01:43:44;;;;;;;73.30;34.00;;;;;;;-0.33;83.27;98959.17;102771;1323;137422;-84
2021/12/12 01:46:32;;;;;;;69.40;31.90;;;;;;;-0.35;83.55;98968.50;102876;1328;23433;-84
2021/12/12 01:49:07;;;;;;;72.30;31.90;;;;;;;-0.35;83.72;98973.33;103037;1322;137954;-83
2021/12/12 01:51:36;;;;;;;72.10;32.00;;;;;;;-0.34;83.99;98970.34;103102;1322;22589;-83
2021/12/12 01:54:07;;;;;;;68.30;31.30;;;;;;;-0.31;83.91;98967.85;102758;1321;137857;-83
2021/12/12 01:56:53;;;;;;;72.90;33.30;;;;;;;-0.28;83.99;98970.26;102874;1325;24319;-84
2021/12/12 01:59:27;;;;;;;71.30;32.60;;;;;;;-0.27;83.93;98967.92;103035;1328;22809;-83
2021/12/12 02:02:11;;;;;;;72.00;33.20;;;;;;;-0.25;84.02;98963.15;102805;1321;137535;-84
2021/12/12 02:04:43;;;;;;;77.90;33.40;;;;;;;-0.24;84.14;98962.33;103100;1327;25383;-82
2021/12/12 02:07:14;;;;;;;74.70;34.20;;;;;;;-0.21;83.93;98962.69;102744;1328;138041;-82
2021/12/12 02:09:42;;;;;;;72.70;34.30;;;;;;;-0.16;83.95;98971.80;103111;1327;23487;-84
2021/12/12 02:12:24;;;;;;;75.20;34.00;;;;;;;-0.12;84.27;98973.33;103091;1323;137756;-81
2021/12/12 02:14:56;;;;;;;75.90;34.80;;;;;;;-0.07;84.07;98975.67;102871;1328;22702;-84
2021/12/12 02:17:32;;;;;;;81.10;35.00;;;;;;;-0.05;83.81;98973.73;102862;1324;23070;-82
2021/12/12 02:20:13;;;;;;;75.40;35.60;;;;;;;-0.05;83.76;98983.11;102709;1326;137231;-83
2021/12/12 02:36:47;;;;;;;73.80;33.40;;;;;;;-0.32;83.17;98980.16;102952;1321;137510;-81
2021/12/12 02:39:16;;;;;;;66.40;32.10;;;;;;;-0.38;83.32;98979.87;102866;1329;22633;-81
2021/12/12 02:41:56;;;;;;;73.00;33.10;;;;;;;-0.43;83.52;98983.10;102927;1328;137581;-82
2021/12/12 02:44:29;;;;;;;75.00;33.40;;;;;;;-0.46;83.75;98981.61;103019;1323;22749;-81
2021/12/12 02:47:00;;;;;;;67.40;30.70;;;;;;;-0.49;83.61;98976.22;103403;1322;22589;-84
2021/12/12 02:52:21;;;;;;;68.70;31.40;;;;;;;-0.56;83.80;98981.54;103280;1324;22657;-81
2021/12/12 02:54:48;;;;;;;59.80;28.40;;;;;;;-0.57;83.91;98984.74;102918;1322;137317;-82
2021/12/12 02:57:17;;;;;;;59.50;28.70;;;;;;;-0.58;84.04;98988.75;102803;1329;25330;-81
2021/12/12 02:59:50;;;;;;;65.30;29.30;;;;;;;-0.62;83.88;98989.80;102792;1321;137804;-81
2021/12/12 03:02:27;;;;;;;57.10;26.40;;;;;;;-0.63;84.01;98995.62;102772;1328;22610;-81
2021/12/12 03:04:59;;;;;;;59.50;27.60;;;;;;;-0.64;84.08;98997.89;103059;1324;23783;-81
2021/12/12 03:07:27;;;;;;;57.30;26.70;;;;;;;-0.64;84.11;98996.48;102956;1326;137409;-81
2021/12/12 03:09:58;;;;;;;46.00;23.00;;;;;;;-0.65;84.38;98998.36;103210;1322;22672;-81
2021/12/12 03:12:33;;;;;;;51.90;24.30;;;;;;;-0.67;84.18;99003.52;102990;1322;137420;-82
2021/12/12 03:15:18;;;;;;;56.80;24.80;;;;;;;-0.71;84.34;99004.30;102696;1328;25146;-81
2021/12/12 03:17:48;;;;;;;52.90;24.90;;;;;;;-0.76;84.26;99009.48;102927;1321;139369;-81
2021/12/12 03:20:48;;;;;;;52.50;25.20;;;;;;;-0.80;84.28;99013.30;102991;1324;25316;-82
2021/12/12 03:23:15;;;;;;;60.70;26.60;;;;;;;-0.84;84.17;99016.57;102950;1326;22596;-82
2021/12/12 03:25:44;;;;;;;58.40;26.60;;;;;;;-0.85;84.71;99017.30;102902;1321;137339;-81
2021/12/12 03:28:15;;;;;;;58.00;24.50;;;;;;;-0.86;84.57;99014.45;103211;1324;30754;-81
2021/12/12 03:30:45;;;;;;;65.20;29.20;;;;;;;-0.87;84.59;99021.02;102888;1322;138068;-81
2021/12/12 03:33:14;;;;;;;58.30;27.30;;;;;;;-0.85;84.94;99024.14;103260;1320;22590;-81
2021/12/12 03:35:53;;;;;;;59.40;26.70;;;;;;;-0.81;84.66;99022.48;103058;1329;137894;-82
2021/12/12 03:38:27;;;;;;;50.70;23.00;;;;;;;-0.79;84.53;99022.11;103145;1325;31885;-81
2021/12/12 03:40:57;;;;;;;59.70;28.20;;;;;;;-0.80;84.44;99020.20;102889;1324;22574;-81
2021/12/12 03:43:25;;;;;;;58.10;26.70;;;;;;;-0.81;84.66;99020.02;102889;1326;137664;-81
2021/12/12 03:45:53;;;;;;;51.20;24.10;;;;;;;-0.82;84.66;99025.58;102682;1324;25353;-81
2021/12/12 03:48:28;;;;;;;57.00;26.30;;;;;;;-0.82;84.36;99028.11;102599;1325;138235;-81
2021/12/12 03:51:01;;;;;;;54.80;25.90;;;;;;;-0.84;84.13;99031.67;102929;1322;22669;-82
2021/12/12 03:53:30;;;;;;;59.60;26.70;;;;;;;-0.83;84.29;99035.98;102997;1322;22571;-82
2021/12/12 03:55:58;;;;;;;59.00;28.80;;;;;;;-0.80;84.25;99039.48;103055;1326;137891;-81
2021/12/12 03:58:25;;;;;;;59.40;28.60;;;;;;;-0.77;84.33;99043.11;103038;1327;25306;-81
2021/12/12 04:00:58;;;;;;;64.70;28.70;;;;;;;-0.74;84.53;99041.05;102816;1326;137426;-81
2021/12/12 04:03:25;;;;;;;52.80;27.70;;;;;;;-0.73;84.39;99037.05;102885;1321;22583;-81
2021/12/12 04:05:58;;;;;;;59.70;25.80;;;;;;;-0.71;84.68;99033.75;102643;1326;138966;-81
2021/12/12 04:08:33;;;;;;;52.80;24.50;;;;;;;-0.65;84.74;99033.48;102753;1323;255928;-81
2021/12/12 04:11:03;;;;;;;51.60;24.40;;;;;;;-0.63;84.09;99032.60;103158;1326;22603;-82
2021/12/12 04:13:37;;;;;;;51.50;23.10;;;;;;;-0.60;84.38;99033.31;102964;1327;137667;-81
2021/12/12 04:16:07;;;;;;;48.80;24.10;;;;;;;-0.54;84.17;99035.94;103270;1319;24222;-81
2021/12/12 04:18:35;;;;;;;52.10;23.90;;;;;;;-0.53;83.49;99039.42;102934;1327;137926;-81
2021/12/12 04:21:03;;;;;;;48.80;23.10;;;;;;;-0.53;83.94;99039.40;103126;1322;24311;-81
2021/12/12 04:23:33;;;;;;;53.30;24.00;;;;;;;-0.49;83.95;99039.38;102869;1327;22929;-81
2021/12/12 04:26:15;;;;;;;44.80;23.00;;;;;;;-0.46;83.93;99041.87;102763;1324;137986;-81
2021/12/12 04:28:43;;;;;;;56.80;24.30;;;;;;;-0.41;84.19;99040.26;103209;1320;24442;-82
2021/12/12 04:31:11;;;;;;;46.30;23.00;;;;;;;-0.37;84.30;99037.76;103127;1324;137547;-81
2021/12/12 04:33:38;;;;;;;48.80;23.70;;;;;;;-0.34;84.19;99040.31;103075;1326;25482;-81
2021/12/12 04:36:06;;;;;;;57.30;25.70;;;;;;;-0.32;84.12;99037.80;102853;1322;137980;-81
2021/12/12 04:38:33;;;;;;;58.50;27.60;;;;;;;-0.29;84.35;99043.13;102901;1323;26518;-81
2021/12/12 04:41:01;;;;;;;64.00;29.10;;;;;;;-0.27;84.24;99042.39;102847;1328;22604;-82
2021/12/12 04:43:28;;;;;;;57.60;27.80;;;;;;;-0.24;84.15;99045.08;102854;1329;138840;-81
2021/12/12 04:46:08;;;;;;;55.50;26.80;;;;;;;-0.22;84.07;99049.64;102966;1328;24231;-82
2021/12/12 04:51:47;;;;;;;53.60;26.90;;;;;;;-0.16;83.86;99056.20;103083;1326;22606;-82
2021/12/12 04:54:43;;;;;;;57.70;27.90;;;;;;;-0.15;84.17;99060.58;103105;1322;137667;-82
2021/12/12 04:57:38;;;;;;;64.10;29.80;;;;;;;-0.13;84.03;99070.70;103204;1324;22579;-82
2021/12/12 05:00:13;;;;;;;62.70;28.60;;;;;;;-0.12;83.82;99077.21;102774;1322;137644;-82
2021/12/12 05:02:57;;;;;;;62.90;28.90;;;;;;;-0.12;83.29;99083.52;103210;1324;22590;-82
2021/12/12 05:05:29;;;;;;;60.60;27.70;;;;;;;-0.12;83.42;99086.12;103055;1323;22693;-82
2021/12/12 05:08:04;;;;;;;68.60;30.30;;;;;;;-0.09;83.57;99093.89;102849;1322;137559;-82
2021/12/12 05:10:44;;;;;;;62.10;27.90;;;;;;;-0.05;83.68;99098.27;103094;1321;31717;-82
2021/12/12 05:13:25;;;;;;;56.70;28.30;;;;;;;-0.06;83.54;99105.98;103007;1321;138002;-82
2021/12/12 05:16:01;;;;;;;63.40;29.60;;;;;;;-0.07;83.66;99105.30;103171;1327;22584;-82
2021/12/12 05:18:39;;;;;;;62.40;29.40;;;;;;;-0.08;83.73;99109.29;102775;1327;137716;-82
2021/12/12 05:21:13;;;;;;;61.50;29.20;;;;;;;-0.08;83.80;99111.05;103521;1324;22712;-82
2021/12/12 05:23:46;;;;;;;52.10;23.10;;;;;;;-0.12;82.76;99123.96;103127;1322;22693;-82
2021/12/12 05:26:20;;;;;;;58.50;27.60;;;;;;;-0.22;82.81;99128.63;103225;1325;137226;-82
2021/12/12 05:28:53;;;;;;;63.70;30.40;;;;;;;-0.30;83.33;99124.40;103305;1324;22636;-82
2021/12/12 05:31:22;;;;;;;64.30;31.50;;;;;;;-0.34;83.33;99129.70;102787;1325;137440;-82
2021/12/12 05:33:51;;;;;;;68.90;32.90;;;;;;;-0.41;83.49;99132.16;102953;1321;22720;-82
2021/12/12 05:36:23;;;;;;;71.80;34.40;;;;;;;-0.49;83.40;99132.75;103149;1321;138073;-82
2021/12/12 05:38:50;;;;;;;78.30;36.60;;;;;;;-0.57;83.47;99133.95;103106;1325;22680;-82
2021/12/12 05:41:20;;;;;;;71.60;34.20;;;;;;;-0.61;83.71;99131.66;103639;1321;22599;-82
2021/12/12 05:43:53;;;;;;;71.10;32.70;;;;;;;-0.62;84.09;99130.55;103431;1320;137731;-82
2021/12/12 05:46:23;;;;;;;71.30;34.10;;;;;;;-0.64;84.01;99129.11;103598;1316;25341;-82
2021/12/12 05:48:51;;;;;;;;;;;;;;;-0.64;83.84;99133.60;103496;1316;137250;-82
2021/12/12 05:51:19;;;;;;;64.30;30.50;;;;;;;-0.66;84.01;99131.17;103136;1322;25357;-82
2021/12/12 05:53:50;;;;;;;73.80;34.10;;;;;;;-0.68;84.28;99136.34;103442;1318;22736;-81
2021/12/12 05:56:22;;;;;;;64.90;32.10;;;;;;;-0.66;84.54;99140.16;103424;1322;138122;-82
2021/12/12 05:58:50;;;;;;;69.80;31.80;;;;;;;-0.60;84.57;99138.92;103311;1321;23278;-82
2021/12/12 06:01:18;;;;;;;63.70;30.50;;;;;;;-0.56;84.25;99136.85;103314;1320;137354;-81
2021/12/12 06:03:47;;;;;;;64.80;30.10;;;;;;;-0.51;84.54;99138.50;103784;1316;25533;-82
2021/12/12 06:06:20;;;;;;;73.20;33.50;;;;;;;-0.48;84.33;99140.92;103417;1321;138119;-82
2021/12/12 06:08:50;;;;;;;73.00;31.60;;;;;;;-0.45;84.41;99137.02;103600;1316;24309;-82
2021/12/12 06:11:26;;;;;;;73.90;35.10;;;;;;;-0.43;84.20;99138.55;103392;1324;23343;-83
2021/12/12 06:13:54;;;;;;;66.30;33.80;;;;;;;-0.41;84.20;99139.23;103689;1318;137962;-81
2021/12/12 06:16:23;;;;;;;73.80;33.50;;;;;;;-0.37;83.99;99148.17;103759;1321;22562;-82
2021/12/12 06:19:00;;;;;;;69.50;34.80;;;;;;;-0.34;83.99;99155.15;103627;1318;137327;-82
2021/12/12 06:21:29;;;;;;;75.50;36.30;;;;;;;-0.30;83.91;99154.80;103660;1325;22881;-82
2021/12/12 06:23:58;;;;;;;74.40;36.20;;;;;;;-0.29;83.98;99157.30;103447;1316;137665;-82
2021/12/12 06:26:25;;;;;;;;;;;;;;;-0.25;83.99;99156.89;103674;1316;22587;-82
2021/12/12 06:28:53;;;;;;;69.40;34.20;;;;;;;-0.24;84.07;99162.88;103518;1319;25239;-82
2021/12/12 06:31:21;;;;;;;76.80;35.50;;;;;;;-0.26;83.76;99162.55;103528;1316;137156;-82
2021/12/12 06:33:48;;;;;;;71.10;33.50;;;;;;;-0.27;83.63;99159.39;103498;1321;25378;-83
2021/12/12 06:36:16;;;;;;;69.90;35.20;;;;;;;-0.29;83.19;99160.38;103542;1322;139170;-82
2021/12/12 06:38:49;;;;;;;73.10;32.70;;;;;;;-0.29;83.92;99162.45;103557;1316;23296;-82
2021/12/12 06:41:18;;;;;;;70.80;33.10;;;;;;;-0.24;83.94;99160.94;103378;1324;22584;-82
2021/12/12 06:43:47;;;;;;;74.00;34.80;;;;;;;-0.24;83.88;99160.00;103491;1316;137495;-82
2021/12/12 06:46:15;;;;;;;75.80;35.70;;;;;;;-0.25;83.64;99159.02;103576;1319;24250;-82
2021/12/12 06:48:43;;;;;;;81.10;37.80;;;;;;;-0.25;83.77;99156.19;103900;1316;137883;-83
2021/12/12 06:51:12;;;;;;;80.50;37.30;;;;;;;-0.25;83.60;99154.45;103774;1317;23987;-83
2021/12/12 06:53:42;;;;;;;81.10;36.70;;;;;;;-0.21;83.93;99150.82;103889;1322;22722;-82
2021/12/12 06:56:09;;;;;;;89.90;38.90;;;;;;;-0.16;83.90;99152.84;103605;1317;137600;-82
2021/12/12 06:58:37;;;;;;;84.40;38.50;;;;;;;-0.12;83.88;99156.33;103519;1318;25400;-82
2021/12/12 07:01:12;;;;;;;80.00;37.50;;;;;;;-0.10;83.75;99161.95;103325;1318;137390;-82
2021/12/12 07:03:54;;;;;;;97.30;41.20;;;;;;;-0.09;83.96;99158.64;103756;1323;25446;-82
2021/12/12 07:06:23;;;;;;;95.10;41.30;;;;;;;-0.07;84.05;99154.55;103525;1316;137952;-82
2021/12/12 07:08:58;;;;;;;;;;;;;;;-0.05;83.81;99151.13;103490;1319;24497;-82
2021/12/12 07:11:27;;;;;;;89.10;42.30;;;;;;;-0.01;84.20;99145.20;103457;1316;25353;-82
2021/12/12 07:13:55;;;;;;;99.50;43.90;;;;;;;0.03;83.98;99146.59;103412;1324;137598;-82
2021/12/12 07:16:23;;;;;;;92.90;43.70;;;;;;;0.06;83.91;99140.85;103918;1318;22620;-82
2021/12/12 07:18:54;;;;;;;104.20;44.60;;;;;;;0.08;84.10;99142.27;103828;1320;137456;-83
2021/12/12 07:21:23;;;;;;;103.40;47.10;;;;;;;0.08;83.73;99139.58;104064;1318;22640;-82
2021/12/12 07:23:51;;;;;;;108.70;50.20;;;;;;;0.10;83.98;99142.53;104082;1316;25630;-83
2021/12/12 07:26:24;;;;;;;103.40;46.30;;;;;;;0.13;83.79;99151.21;103443;1316;138411;-83
2021/12/12 07:28:53;;;;;;;101.80;46.70;;;;;;;0.16;84.11;99153.85;103521;1319;23108;-83
2021/12/12 07:31:24;;;;;;;108.40;50.50;;;;;;;0.22;83.91;99151.77;103380;1323;137495;-82
2021/12/12 07:33:55;;;;;;;104.80;48.20;;;;;;;0.25;84.00;99149.42;103325;1318;22653;-83
2021/12/12 07:36:23;;;;;;;108.00;49.30;;;;;;;0.28;83.93;99151.55;103187;1322;139777;-82
2021/12/12 07:38:56;;;;;;;110.10;48.10;;;;;;;0.30;83.64;99151.02;103568;1321;26492;-82
2021/12/12 07:41:27;;;;;;;110.80;52.90;;;;;;;0.30;83.67;99154.02;103688;1321;25252;-83
2021/12/12 07:43:55;;;;;;;108.30;49.40;;;;;;;0.30;83.58;99148.48;103545;1316;138803;-82
2021/12/12 07:46:23;;;;;;;105.90;47.60;;;;;;;0.32;83.56;99148.25;103376;1322;25264;-83
2021/12/12 07:48:52;;;;;;;97.00;49.30;;;;;;;0.36;83.51;99151.61;103955;1316;137564;-83
2021/12/12 07:51:20;;;;;;;;;;;;;;;0.38;83.34;99151.54;103908;1316;25425;-83
2021/12/12 07:53:52;;;;;;;94.10;45.40;;;;;;;0.41;83.68;99153.46;103545;1318;26648;-83
2021/12/12 07:56:21;;;;;;;98.10;48.50;;;;;;;0.43;83.41;99149.33;103609;1318;137897;-83
2021/12/12 07:58:49;;;;;;;;;;;;;;;0.43;83.14;99153.80;103650;1316;24436;-83
2021/12/12 08:01:17;;;;;;;102.30;46.60;;;;;;;0.40;83.15;99155.84;103263;1321;124244;-83
2021/12/12 08:03:45;;;;;;;101.90;45.80;;;;;;;0.40;83.25;99156.94;103827;1316;31842;-83
2021/12/12 08:06:15;;;;;;;100.30;46.60;;;;;;;0.41;83.00;99157.79;103682;1316;137507;-83
2021/12/12 08:08:43;;;;;;;94.40;46.30;;;;;;;0.41;83.02;99164.20;103685;1316;25330;-83
2021/12/12 08:11:10;;;;;;;95.80;45.10;;;;;;;0.41;82.84;99169.71;103895;1315;23343;-83
2021/12/12 08:13:38;;;;;;;96.50;43.00;;;;;;;0.40;82.86;99168.33;103481;1323;137747;-82
2021/12/12 08:16:08;;;;;;;95.00;44.80;;;;;;;0.37;82.71;99170.60;103478;1318;22599;-83
2021/12/12 08:18:38;;;;;;;98.00;44.50;;;;;;;0.30;82.53;99171.01;103407;1318;138414;-83
2021/12/12 08:21:07;;;;;;;90.10;42.40;;;;;;;0.25;82.44;99171.26;103536;1323;22600;-82
2021/12/12 08:23:35;;;;;;;102.40;44.60;;;;;;;0.19;82.26;99179.30;103606;1320;24087;-83
2021/12/12 08:26:18;;;;;;;101.10;45.50;;;;;;;0.19;82.75;99180.95;103518;1316;137294;-82
2021/12/12 08:28:59;;;;;;;95.10;44.80;;;;;;;0.19;82.74;99182.96;103661;1316;22658;-82
2021/12/12 08:31:27;;;;;;;95.50;44.30;;;;;;;0.16;82.80;99182.80;103601;1316;137260;-83
2021/12/12 08:33:54;;;;;;;106.80;48.20;;;;;;;0.15;82.62;99180.05;103440;1316;25564;-83
2021/12/12 08:36:22;;;;;;;94.30;44.40;;;;;;;0.14;82.57;99175.70;103122;1318;138532;-83
2021/12/12 08:39:09;;;;;;;84.10;44.00;;;;;;;0.15;82.49;99176.14;103356;1321;24255;-83
2021/12/12 08:41:36;;;;;;;95.10;45.20;;;;;;;0.16;82.74;99176.36;103424;1323;22617;-82
2021/12/12 08:44:05;;;;;;;95.10;45.70;;;;;;;0.19;82.79;99179.70;103528;1320;137712;-83
2021/12/12 08:46:33;;;;;;;91.60;45.50;;;;;;;0.21;82.61;99179.31;103650;1320;23950;-83
2021/12/12 08:49:01;;;;;;;96.20;44.70;;;;;;;0.27;82.58;99182.48;103596;1316;137964;-83
2021/12/12 08:51:34;;;;;;;102.00;48.10;;;;;;;0.31;82.70;99180.69;103535;1316;24358;-82
2021/12/12 08:54:22;;;;;;;95.90;48.20;;;;;;;0.38;82.67;99173.59;103115;1325;138984;-83
2021/12/12 08:57:03;;;;;;;98.60;45.60;;;;;;;0.46;82.44;99167.92;103269;1324;23937;-83
2021/12/12 08:59:37;;;;;;;85.00;44.00;;;;;;;0.50;82.18;99170.00;103167;1317;22599;-84
2021/12/12 09:02:09;;;;;;;97.70;44.80;;;;;;;0.50;82.11;99169.65;103196;1318;137415;-85
2021/12/12 09:04:42;;;;;;;102.20;47.20;;;;;;;0.53;82.13;99172.88;103617;1321;22589;-85
2021/12/12 09:07:11;;;;;;;91.30;47.00;;;;;;;0.54;82.08;99176.15;103342;1322;138600;-84
2021/12/12 09:09:51;;;;;;;106.30;46.60;;;;;;;0.56;81.98;99172.77;103503;1316;22581;-85
2021/12/12 09:12:41;;;;;;;91.90;45.90;;;;;;;0.58;81.91;99173.66;103369;1316;138312;-84
2021/12/12 09:15:13;;;;;;;88.00;42.00;;;;;;;0.62;81.79;99174.63;103474;1317;31006;-84
2021/12/12 09:17:46;;;;;;;92.40;44.60;;;;;;;0.66;81.85;99168.61;104519;1320;22753;-84
2021/12/12 09:20:46;;;;;;;93.50;44.40;;;;;;;0.71;81.76;99165.10;104097;1318;137901;-84
2021/12/12 09:23:37;;;;;;;85.00;39.50;;;;;;;0.76;81.60;99163.60;104191;1319;25252;-84
2021/12/12 09:26:23;;;;;;;89.70;43.20;;;;;;;0.80;81.42;99163.78;104297;1316;136991;-84
2021/12/12 09:29:01;;;;;;;86.40;42.80;;;;;;;0.84;81.40;99162.92;104230;1315;25253;-83
2021/12/12 09:31:39;;;;;;;72.00;34.20;;;;;;;0.85;80.46;99162.46;103690;1316;137965;-84
2021/12/12 09:34:16;;;;;;;73.10;36.00;;;;;;;0.83;79.81;99158.83;104149;1318;23325;-84
2021/12/12 09:37:05;;;;;;;60.80;32.30;;;;;;;0.81;80.08;99157.21;103534;1318;141441;-84
2021/12/12 09:39:40;;;;;;;77.50;36.10;;;;;;;0.82;80.05;99154.24;103766;1319;24243;-84
2021/12/12 09:42:13;;;;;;;61.40;30.40;;;;;;;0.83;79.95;99153.63;103044;1323;137345;-84
2021/12/12 09:45:17;;;;;;;74.50;36.20;;;;;;;0.81;80.20;99150.58;103400;1322;22695;-84
2021/12/12 09:51:22;;;;;;;79.90;39.20;;;;;;;0.85;80.05;99154.14;103610;1316;23747;-84
2021/12/12 09:54:28;;;;;;;68.80;36.20;;;;;;;0.93;80.37;99147.71;103636;1319;22596;-84
2021/12/12 09:56:58;;;;;;;77.10;35.90;;;;;;;1.06;80.46;99142.67;103587;1319;24244;-84
2021/12/12 10:00:03;;;;;;;68.70;36.80;;;;;;;1.18;80.41;99140.23;103342;1322;22807;-85
2021/12/12 10:02:54;;;;;;;73.70;34.80;;;;;;;1.28;80.15;99131.41;103111;1325;137816;-84
2021/12/12 10:05:51;;;;;;;69.50;33.90;;;;;;;1.38;79.62;99128.38;103649;1318;23928;-82
2021/12/12 10:08:43;;;;;;;62.20;32.10;;;;;;;1.45;79.45;99125.07;103346;1316;137376;-84
2021/12/12 10:11:52;;;;;;;71.10;35.80;;;;;;;1.53;79.42;99126.10;103481;1316;25425;-81
2021/12/12 10:15:12;;;;;;;67.40;32.50;;;;;;;1.61;78.68;99127.63;102976;1319;137421;-80
2021/12/12 10:18:06;;;;;;;76.50;36.10;;;;;;;1.60;78.34;99125.95;103306;1318;23956;-83
2021/12/12 10:20:41;;;;;;;68.80;33.10;;;;;;;1.65;78.53;99135.00;102947;1318;137753;-83
2021/12/12 10:23:20;;;;;;;51.80;25.80;;;;;;;1.73;78.34;99140.02;103222;1326;25420;-85
2021/12/12 10:26:02;;;;;;;59.20;26.60;;;;;;;1.78;77.92;99137.63;103101;1316;136337;-85
2021/12/12 10:28:32;;;;;;;53.10;24.80;;;;;;;1.85;77.78;99136.00;103514;1317;22658;-85
2021/12/12 10:31:02;;;;;;;42.40;21.10;;;;;;;1.90;77.44;99131.48;103327;1323;137562;-85
2021/12/12 10:33:55;;;;;;;38.10;20.30;;;;;;;1.95;77.23;99133.46;103431;1316;24296;-85
2021/12/12 10:36:43;;;;;;;41.60;20.40;;;;;;;1.98;76.81;99135.76;103457;1319;137785;-84
2021/12/12 10:39:22;;;;;;;37.20;17.00;;;;;;;1.99;76.17;99133.91;103399;1323;23271;-85
2021/12/12 10:42:11;;;;;;;30.70;15.30;;;;;;;2.01;75.44;99128.84;103110;1322;26524;-84
2021/12/12 10:44:47;;;;;;;32.90;15.60;;;;;;;2.01;75.60;99126.13;103142;1324;137357;-86
2021/12/12 10:47:23;;;;;;;22.80;11.80;;;;;;;2.00;74.93;99134.68;103433;1322;30491;-85
2021/12/12 10:50:15;;;;;;;28.40;14.10;;;;;;;1.91;74.26;99141.23;103426;1316;137135;-85
2021/12/12 10:52:56;;;;;;;26.60;13.20;;;;;;;1.82;74.35;99143.02;103414;1323;22653;-85
2021/12/12 10:55:36;;;;;;;27.90;12.90;;;;;;;1.75;74.46;99141.60;103498;1321;137681;-85
2021/12/12 10:58:16;;;;;;;31.10;14.80;;;;;;;1.71;74.95;99137.58;103265;1324;25294;-85
2021/12/12 11:00:56;;;;;;;30.90;14.30;;;;;;;1.71;74.47;99141.09;103263;1318;137395;-85
2021/12/12 11:03:35;;;;;;;35.10;17.20;;;;;;;1.68;74.46;99133.94;103208;1317;22566;-85
2021/12/12 11:06:09;;;;;;;38.10;18.60;;;;;;;1.67;74.80;99132.77;103380;1320;22597;-85
2021/12/12 11:08:51;;;;;;;38.80;20.20;;;;;;;1.67;75.09;99128.27;104067;1316;137671;-86
2021/12/12 11:11:31;;;;;;;33.80;16.70;;;;;;;1.75;75.17;99123.68;104337;1316;25262;-84
2021/12/12 11:14:08;;;;;;;37.60;17.10;;;;;;;1.79;74.63;99122.05;104312;1316;137446;-84
2021/12/12 11:16:50;;;;;;;34.40;15.70;;;;;;;1.81;74.63;99128.20;103741;1319;22744;-83
2021/12/12 11:19:45;;;;;;;38.50;17.40;;;;;;;1.83;74.42;99118.83;103231;1324;137142;-84
2021/12/12 11:22:36;;;;;;;42.10;18.50;;;;;;;1.85;74.46;99113.98;103194;1322;22655;-84
2021/12/12 11:25:13;;;;;;;42.40;20.00;;;;;;;1.89;74.43;99111.42;103096;1321;137921;-84
2021/12/12 11:27:50;;;;;;;47.50;22.70;;;;;;;1.95;74.93;99110.73;103436;1319;22633;-84
2021/12/12 11:30:23;;;;;;;48.40;22.80;;;;;;;2.03;74.68;99114.42;103537;1322;22756;-84
2021/12/12 11:32:54;;;;;;;39.60;19.70;;;;;;;2.10;74.44;99109.52;103683;1322;136985;-83
2021/12/12 11:35:25;;;;;;;42.50;21.20;;;;;;;2.12;73.66;99109.15;103521;1322;25215;-84
2021/12/12 11:38:23;;;;;;;44.10;20.80;;;;;;;2.11;73.84;99104.28;103579;1322;137340;-84
2021/12/12 11:41:18;;;;;;;38.40;18.50;;;;;;;2.05;74.09;99102.55;103688;1319;25647;-83
2021/12/12 11:44:01;;;;;;;50.30;22.20;;;;;;;1.97;73.42;99101.31;103451;1324;137526;-84
2021/12/12 11:47:06;;;;;;;44.20;21.60;;;;;;;1.90;73.61;99102.02;103483;1316;22578;-84
2021/12/12 11:49:56;;;;;;;42.90;20.10;;;;;;;1.89;74.14;99099.55;103608;1321;137195;-84
2021/12/12 11:52:56;;;;;;;44.70;21.20;;;;;;;1.88;73.77;99102.52;103494;1323;22588;-84
2021/12/12 11:55:52;;;;;;;51.70;24.80;;;;;;;1.83;73.54;99102.57;103509;1319;137939;-84
2021/12/12 11:58:25;;;;;;;74.10;32.30;;;;;;;1.81;74.55;99105.33;103697;1321;24233;-84
2021/12/12 12:01:02;;;;;;;74.40;35.80;;;;;;;1.84;75.34;99104.81;103304;1322;137753;-84
2021/12/12 12:03:55;;;;;;;81.60;39.40;;;;;;;1.89;75.68;99108.16;103549;1324;23735;-84
2021/12/12 12:06:33;;;;;;;86.90;42.70;;;;;;;1.91;75.86;99111.30;103538;1320;24382;-84
2021/12/12 12:09:39;;;;;;;94.20;44.50;;;;;;;1.91;75.75;99113.48;103337;1316;136979;-84
2021/12/12 12:12:44;;;;;;;99.40;46.00;;;;;;;1.85;75.64;99119.77;103830;1316;23093;-85